sensor_id;sensor_type;location;lat;lon;timestamp;noise_LAeq;noise_LA_min;noise_LA_max;noise_LA01;noise_LA95
37163;Laerm;23057;48.554;14.454;2023-06-14T00:00:23;49.79;48.87;51.75;;
37163;Laerm;23057;48.554;14.454;2023-06-14T00:02:53;49.78;48.48;51.76;;
37163;Laerm;23057;48.554;14.454;2023-06-14T00:05:26;49.80;48.75;51.54;;
37163;Laerm;23057;48.554;14.454;2023-06-14T00:07:57;49.80;48.78;51.13;;
37163;Laerm;23057;48.554;14.454;2023-06-14T00:10:30;49.80;48.66;51.37;;
37163;Laerm;23057;48.554;14.454;2023-06-14T00:13:03;49.81;48.78;51.20;;
37163;Laerm;23057;48.554;14.454;2023-06-14T00:15:34;49.80;48.69;51.33;;
37163;Laerm;23057;48.554;14.454;2023-06-14T00:18:06;49.79;48.70;51.01;;
37163;Laerm;23057;48.554;14.454;2023-06-14T00:20:36;49.81;48.58;50.98;;
37163;Laerm;23057;48.554;14.454;2023-06-14T00:23:07;49.81;48.55;51.43;;
37163;Laerm;23057;48.554;14.454;2023-06-14T00:25:38;49.81;48.58;51.38;;
37163;Laerm;23057;48.554;14.454;2023-06-14T00:28:09;49.81;48.61;51.40;;
37163;Laerm;23057;48.554;14.454;2023-06-14T00:30:39;49.82;48.67;51.50;;
37163;Laerm;23057;48.554;14.454;2023-06-14T00:33:10;49.83;48.77;60.26;;
37163;Laerm;23057;48.554;14.454;2023-06-14T00:35:41;49.79;48.78;51.22;;
37163;Laerm;23057;48.554;14.454;2023-06-14T00:38:11;49.80;48.78;51.13;;
37163;Laerm;23057;48.554;14.454;2023-06-14T00:40:42;49.81;48.66;51.54;;
37163;Laerm;23057;48.554;14.454;2023-06-14T00:43:13;49.81;48.67;51.74;;
37163;Laerm;23057;48.554;14.454;2023-06-14T00:45:43;49.81;48.60;51.33;;
37163;Laerm;23057;48.554;14.454;2023-06-14T00:48:14;49.82;48.77;51.60;;
37163;Laerm;23057;48.554;14.454;2023-06-14T00:50:46;49.82;48.83;51.15;;
37163;Laerm;23057;48.554;14.454;2023-06-14T00:53:19;49.82;48.80;51.85;;
37163;Laerm;23057;48.554;14.454;2023-06-14T00:55:50;49.83;48.76;51.65;;
37163;Laerm;23057;48.554;14.454;2023-06-14T00:58:22;49.82;48.88;52.47;;
37163;Laerm;23057;48.554;14.454;2023-06-14T01:00:53;49.82;48.48;51.49;;
37163;Laerm;23057;48.554;14.454;2023-06-14T01:03:24;49.82;48.74;51.15;;
37163;Laerm;23057;48.554;14.454;2023-06-14T01:06:23;49.82;48.76;51.10;;
37163;Laerm;23057;48.554;14.454;2023-06-14T01:12:13;49.83;48.83;51.11;;
37163;Laerm;23057;48.554;14.454;2023-06-14T01:14:48;49.82;48.66;51.32;;
37163;Laerm;23057;48.554;14.454;2023-06-14T01:17:19;49.81;48.78;51.02;;
37163;Laerm;23057;48.554;14.454;2023-06-14T01:19:51;49.82;48.73;52.79;;
37163;Laerm;23057;48.554;14.454;2023-06-14T01:22:28;49.83;48.80;51.31;;
37163;Laerm;23057;48.554;14.454;2023-06-14T01:24:59;49.87;48.88;51.11;;
37163;Laerm;23057;48.554;14.454;2023-06-14T01:27:30;49.87;48.61;51.04;;
37163;Laerm;23057;48.554;14.454;2023-06-14T01:30:04;49.84;48.83;51.59;;
37163;Laerm;23057;48.554;14.454;2023-06-14T01:32:36;49.84;48.69;51.28;;
37163;Laerm;23057;48.554;14.454;2023-06-14T01:35:07;49.86;48.69;51.35;;
37163;Laerm;23057;48.554;14.454;2023-06-14T01:37:40;49.87;48.73;51.29;;
37163;Laerm;23057;48.554;14.454;2023-06-14T01:40:14;49.86;48.83;51.70;;
37163;Laerm;23057;48.554;14.454;2023-06-14T01:42:49;49.82;48.69;51.11;;
37163;Laerm;23057;48.554;14.454;2023-06-14T01:45:21;49.82;48.80;51.17;;
37163;Laerm;23057;48.554;14.454;2023-06-14T01:47:53;49.84;48.61;51.87;;
37163;Laerm;23057;48.554;14.454;2023-06-14T01:50:23;49.83;48.73;51.75;;
37163;Laerm;23057;48.554;14.454;2023-06-14T01:52:58;49.84;48.81;51.33;;
37163;Laerm;23057;48.554;14.454;2023-06-14T01:55:29;49.87;48.70;51.76;;
37163;Laerm;23057;48.554;14.454;2023-06-14T01:58:00;49.86;48.81;56.49;;
37163;Laerm;23057;48.554;14.454;2023-06-14T02:00:30;49.86;48.84;51.85;;
37163;Laerm;23057;48.554;14.454;2023-06-14T02:03:01;49.83;48.66;55.38;;
37163;Laerm;23057;48.554;14.454;2023-06-14T02:05:34;49.85;48.83;51.19;;
37163;Laerm;23057;48.554;14.454;2023-06-14T02:08:06;49.85;48.81;51.19;;
37163;Laerm;23057;48.554;14.454;2023-06-14T02:10:37;49.85;48.78;51.77;;
37163;Laerm;23057;48.554;14.454;2023-06-14T02:13:08;49.84;48.58;51.55;;
37163;Laerm;23057;48.554;14.454;2023-06-14T02:15:38;49.85;48.70;51.37;;
37163;Laerm;23057;48.554;14.454;2023-06-14T02:18:09;49.84;48.64;52.62;;
37163;Laerm;23057;48.554;14.454;2023-06-14T02:20:40;49.87;48.83;53.56;;
37163;Laerm;23057;48.554;14.454;2023-06-14T02:23:11;49.89;48.77;52.66;;
37163;Laerm;23057;48.554;14.454;2023-06-14T02:25:42;49.90;48.80;52.12;;
37163;Laerm;23057;48.554;14.454;2023-06-14T02:28:15;49.87;48.85;51.68;;
37163;Laerm;23057;48.554;14.454;2023-06-14T02:30:46;49.88;48.61;53.54;;
37163;Laerm;23057;48.554;14.454;2023-06-14T02:33:16;49.89;48.81;51.62;;
37163;Laerm;23057;48.554;14.454;2023-06-14T02:35:48;49.89;48.83;51.49;;
37163;Laerm;23057;48.554;14.454;2023-06-14T02:38:18;49.91;48.58;52.44;;
37163;Laerm;23057;48.554;14.454;2023-06-14T02:40:49;49.88;48.88;51.60;;
37163;Laerm;23057;48.554;14.454;2023-06-14T02:43:20;49.90;48.80;53.29;;
37163;Laerm;23057;48.554;14.454;2023-06-14T02:45:51;49.98;48.74;57.14;;
37163;Laerm;23057;48.554;14.454;2023-06-14T02:48:22;49.94;48.81;53.52;;
37163;Laerm;23057;48.554;14.454;2023-06-14T02:50:53;49.93;48.60;52.23;;
37163;Laerm;23057;48.554;14.454;2023-06-14T02:53:24;49.92;48.74;53.24;;
37163;Laerm;23057;48.554;14.454;2023-06-14T02:55:54;49.93;48.37;54.85;;
37163;Laerm;23057;48.554;14.454;2023-06-14T02:58:26;49.91;48.81;54.18;;
37163;Laerm;23057;48.554;14.454;2023-06-14T03:00:56;49.93;48.71;52.06;;
37163;Laerm;23057;48.554;14.454;2023-06-14T03:03:27;49.96;48.77;55.30;;
37163;Laerm;23057;48.554;14.454;2023-06-14T03:05:58;49.96;48.66;55.98;;
37163;Laerm;23057;48.554;14.454;2023-06-14T03:08:35;50.06;48.69;55.28;;
37163;Laerm;23057;48.554;14.454;2023-06-14T03:11:09;49.96;48.78;53.23;;
37163;Laerm;23057;48.554;14.454;2023-06-14T03:13:39;49.91;48.63;52.47;;
37163;Laerm;23057;48.554;14.454;2023-06-14T03:16:11;49.95;48.80;55.97;;
37163;Laerm;23057;48.554;14.454;2023-06-14T03:18:42;49.92;48.73;55.93;;
37163;Laerm;23057;48.554;14.454;2023-06-14T03:21:12;49.91;48.84;52.54;;
37163;Laerm;23057;48.554;14.454;2023-06-14T03:23:44;49.90;48.78;55.72;;
37163;Laerm;23057;48.554;14.454;2023-06-14T03:26:15;49.92;48.76;52.43;;
37163;Laerm;23057;48.554;14.454;2023-06-14T03:28:48;49.93;48.76;53.33;;
37163;Laerm;23057;48.554;14.454;2023-06-14T03:31:20;50.04;48.84;56.74;;
37163;Laerm;23057;48.554;14.454;2023-06-14T03:33:51;50.02;48.80;54.24;;
37163;Laerm;23057;48.554;14.454;2023-06-14T03:36:22;49.94;48.71;58.22;;
37163;Laerm;23057;48.554;14.454;2023-06-14T03:38:54;49.93;48.64;63.87;;
37163;Laerm;23057;48.554;14.454;2023-06-14T03:41:27;49.91;48.58;57.83;;
37163;Laerm;23057;48.554;14.454;2023-06-14T03:43:58;49.98;48.74;56.05;;
37163;Laerm;23057;48.554;14.454;2023-06-14T03:46:29;50.01;48.71;58.12;;
37163;Laerm;23057;48.554;14.454;2023-06-14T03:48:59;49.88;48.73;58.13;;
37163;Laerm;23057;48.554;14.454;2023-06-14T03:51:30;49.81;48.67;52.42;;
37163;Laerm;23057;48.554;14.454;2023-06-14T03:54:01;49.87;48.73;56.48;;
37163;Laerm;23057;48.554;14.454;2023-06-14T03:56:32;49.78;48.66;53.10;;
37163;Laerm;23057;48.554;14.454;2023-06-14T03:59:03;49.75;48.60;57.55;;
37163;Laerm;23057;48.554;14.454;2023-06-14T04:01:33;50.65;48.81;57.59;;
37163;Laerm;23057;48.554;14.454;2023-06-14T04:04:04;49.94;48.66;57.81;;
37163;Laerm;23057;48.554;14.454;2023-06-14T04:06:35;50.56;48.88;58.28;;
37163;Laerm;23057;48.554;14.454;2023-06-14T04:09:07;50.31;48.84;53.93;;
37163;Laerm;23057;48.554;14.454;2023-06-14T04:11:37;49.92;48.81;53.10;;
37163;Laerm;23057;48.554;14.454;2023-06-14T04:14:08;50.06;48.88;54.35;;
37163;Laerm;23057;48.554;14.454;2023-06-14T04:16:39;50.31;48.85;55.05;;
37163;Laerm;23057;48.554;14.454;2023-06-14T04:19:10;51.01;48.80;56.19;;
37163;Laerm;23057;48.554;14.454;2023-06-14T04:21:41;51.11;49.04;54.38;;
37163;Laerm;23057;48.554;14.454;2023-06-14T04:24:11;51.22;48.74;57.44;;
37163;Laerm;23057;48.554;14.454;2023-06-14T04:26:44;51.13;48.70;57.10;;
37163;Laerm;23057;48.554;14.454;2023-06-14T04:29:15;50.33;48.96;55.17;;
37163;Laerm;23057;48.554;14.454;2023-06-14T04:31:47;50.47;48.88;62.46;;
37163;Laerm;23057;48.554;14.454;2023-06-14T04:34:18;50.23;48.63;61.40;;
37163;Laerm;23057;48.554;14.454;2023-06-14T04:36:49;50.30;48.67;58.81;;
37163;Laerm;23057;48.554;14.454;2023-06-14T04:39:20;50.53;48.55;59.06;;
37163;Laerm;23057;48.554;14.454;2023-06-14T04:41:52;50.78;48.71;59.83;;
37163;Laerm;23057;48.554;14.454;2023-06-14T04:44:23;50.86;48.58;60.60;;
37163;Laerm;23057;48.554;14.454;2023-06-14T04:47:00;51.47;48.46;62.54;;
37163;Laerm;23057;48.554;14.454;2023-06-14T04:49:31;52.11;49.02;60.99;;
37163;Laerm;23057;48.554;14.454;2023-06-14T04:52:03;52.41;48.99;60.94;;
37163;Laerm;23057;48.554;14.454;2023-06-14T04:54:34;53.06;49.04;62.45;;
37163;Laerm;23057;48.554;14.454;2023-06-14T04:57:09;53.86;48.98;62.48;;
37163;Laerm;23057;48.554;14.454;2023-06-14T04:59:44;54.13;48.78;65.31;;
37163;Laerm;23057;48.554;14.454;2023-06-14T05:02:15;54.67;48.84;64.03;;
37163;Laerm;23057;48.554;14.454;2023-06-14T05:04:46;55.64;48.96;64.71;;
37163;Laerm;23057;48.554;14.454;2023-06-14T05:07:18;56.05;49.11;64.33;;
37163;Laerm;23057;48.554;14.454;2023-06-14T05:09:48;57.30;49.12;65.18;;
37163;Laerm;23057;48.554;14.454;2023-06-14T05:12:19;57.38;49.20;65.43;;
37163;Laerm;23057;48.554;14.454;2023-06-14T05:14:51;58.39;49.08;65.79;;
37163;Laerm;23057;48.554;14.454;2023-06-14T05:17:21;58.74;49.21;66.41;;
37163;Laerm;23057;48.554;14.454;2023-06-14T05:19:53;58.82;49.11;66.56;;
37163;Laerm;23057;48.554;14.454;2023-06-14T05:22:23;59.35;49.23;66.58;;
37163;Laerm;23057;48.554;14.454;2023-06-14T05:24:54;59.84;49.21;66.91;;
37163;Laerm;23057;48.554;14.454;2023-06-14T05:27:25;60.28;48.81;68.78;;
37163;Laerm;23057;48.554;14.454;2023-06-14T05:29:56;59.34;49.06;66.72;;
37163;Laerm;23057;48.554;14.454;2023-06-14T05:32:29;60.12;48.80;70.13;;
37163;Laerm;23057;48.554;14.454;2023-06-14T05:35:00;54.60;48.63;66.32;;
37163;Laerm;23057;48.554;14.454;2023-06-14T05:37:31;53.73;48.77;64.41;;
37163;Laerm;23057;48.554;14.454;2023-06-14T05:40:04;53.77;48.67;63.46;;
37163;Laerm;23057;48.554;14.454;2023-06-14T05:42:39;54.94;48.78;64.32;;
37163;Laerm;23057;48.554;14.454;2023-06-14T05:45:10;57.58;48.91;66.47;;
37163;Laerm;23057;48.554;14.454;2023-06-14T05:47:41;56.88;48.90;66.00;;
37163;Laerm;23057;48.554;14.454;2023-06-14T05:50:12;57.22;48.58;67.53;;
37163;Laerm;23057;48.554;14.454;2023-06-14T05:52:42;58.39;48.80;69.18;;
37163;Laerm;23057;48.554;14.454;2023-06-14T05:55:13;59.12;48.94;68.88;;
37163;Laerm;23057;48.554;14.454;2023-06-14T05:57:44;58.68;49.51;67.55;;
37163;Laerm;23057;48.554;14.454;2023-06-14T06:00:15;59.11;48.49;68.10;;
37163;Laerm;23057;48.554;14.454;2023-06-14T06:02:46;59.43;48.16;68.56;;
37163;Laerm;23057;48.554;14.454;2023-06-14T06:05:19;59.92;48.49;69.23;;
37163;Laerm;23057;48.554;14.454;2023-06-14T06:07:50;59.78;48.36;68.83;;
37163;Laerm;23057;48.554;14.454;2023-06-14T06:10:21;59.93;48.48;68.84;;
37163;Laerm;23057;48.554;14.454;2023-06-14T06:12:52;60.59;48.58;69.22;;
37163;Laerm;23057;48.554;14.454;2023-06-14T06:15:24;60.19;48.48;69.16;;
37163;Laerm;23057;48.554;14.454;2023-06-14T06:17:55;57.67;48.31;69.07;;
37163;Laerm;23057;48.554;14.454;2023-06-14T06:20:26;51.28;48.20;62.67;;
37163;Laerm;23057;48.554;14.454;2023-06-14T06:22:59;50.44;48.37;59.81;;
37163;Laerm;23057;48.554;14.454;2023-06-14T06:25:30;50.74;48.39;60.41;;
37163;Laerm;23057;48.554;14.454;2023-06-14T06:28:02;50.99;48.28;62.16;;
37163;Laerm;23057;48.554;14.454;2023-06-14T06:30:33;51.34;48.32;61.21;;
37163;Laerm;23057;48.554;14.454;2023-06-14T06:33:04;51.25;48.55;60.94;;
37163;Laerm;23057;48.554;14.454;2023-06-14T06:35:34;51.51;48.36;62.42;;
37163;Laerm;23057;48.554;14.454;2023-06-14T06:38:05;50.48;48.39;61.72;;
37163;Laerm;23057;48.554;14.454;2023-06-14T06:40:36;49.83;48.21;57.56;;
37163;Laerm;23057;48.554;14.454;2023-06-14T06:43:07;50.54;48.32;60.98;;
37163;Laerm;23057;48.554;14.454;2023-06-14T06:45:37;51.08;48.20;62.42;;
37163;Laerm;23057;48.554;14.454;2023-06-14T06:48:08;51.47;48.10;64.91;;
37163;Laerm;23057;48.554;14.454;2023-06-14T06:50:40;49.44;48.05;56.16;;
37163;Laerm;23057;48.554;14.454;2023-06-14T06:53:11;49.77;47.93;60.22;;
37163;Laerm;23057;48.554;14.454;2023-06-14T06:55:42;50.26;48.02;62.39;;
37163;Laerm;23057;48.554;14.454;2023-06-14T06:58:13;50.16;48.10;61.93;;
37163;Laerm;23057;48.554;14.454;2023-06-14T07:00:44;50.40;48.13;62.54;;
37163;Laerm;23057;48.554;14.454;2023-06-14T07:03:15;50.18;48.26;61.75;;
37163;Laerm;23057;48.554;14.454;2023-06-14T07:05:46;50.15;48.10;59.79;;
37163;Laerm;23057;48.554;14.454;2023-06-14T07:08:16;49.91;48.32;59.29;;
37163;Laerm;23057;48.554;14.454;2023-06-14T07:10:47;49.90;48.31;61.26;;
37163;Laerm;23057;48.554;14.454;2023-06-14T07:13:18;50.09;48.45;59.53;;
37163;Laerm;23057;48.554;14.454;2023-06-14T07:15:49;50.08;48.32;62.86;;
37163;Laerm;23057;48.554;14.454;2023-06-14T07:18:20;49.67;48.10;57.75;;
37163;Laerm;23057;48.554;14.454;2023-06-14T07:20:51;49.68;48.16;57.39;;
37163;Laerm;23057;48.554;14.454;2023-06-14T07:23:23;49.48;48.28;56.80;;
37163;Laerm;23057;48.554;14.454;2023-06-14T07:25:54;49.41;48.28;51.80;;
37163;Laerm;23057;48.554;14.454;2023-06-14T07:28:24;49.51;48.28;59.16;;
37163;Laerm;23057;48.554;14.454;2023-06-14T07:30:55;49.48;48.31;51.71;;
37163;Laerm;23057;48.554;14.454;2023-06-14T07:33:26;49.49;48.39;51.90;;
37163;Laerm;23057;48.554;14.454;2023-06-14T07:35:57;49.52;48.39;52.73;;
37163;Laerm;23057;48.554;14.454;2023-06-14T07:38:28;49.53;48.42;57.42;;
37163;Laerm;23057;48.554;14.454;2023-06-14T07:40:59;49.51;48.31;59.31;;
37163;Laerm;23057;48.554;14.454;2023-06-14T07:43:30;49.49;48.32;59.22;;
37163;Laerm;23057;48.554;14.454;2023-06-14T07:46:00;49.53;48.34;59.06;;
37163;Laerm;23057;48.554;14.454;2023-06-14T07:48:32;49.52;48.16;60.11;;
37163;Laerm;23057;48.554;14.454;2023-06-14T07:51:03;49.53;48.29;58.91;;
37163;Laerm;23057;48.554;14.454;2023-06-14T07:53:34;49.53;48.39;58.72;;
37163;Laerm;23057;48.554;14.454;2023-06-14T07:56:05;49.57;48.51;60.58;;
37163;Laerm;23057;48.554;14.454;2023-06-14T07:58:35;49.71;48.23;60.30;;
37163;Laerm;23057;48.554;14.454;2023-06-14T08:01:06;49.53;48.32;59.00;;
37163;Laerm;23057;48.554;14.454;2023-06-14T08:03:38;49.58;48.39;58.80;;
37163;Laerm;23057;48.554;14.454;2023-06-14T08:06:09;49.51;48.40;56.85;;
37163;Laerm;23057;48.554;14.454;2023-06-14T08:08:40;49.68;48.13;59.52;;
37163;Laerm;23057;48.554;14.454;2023-06-14T08:11:11;49.51;48.36;52.24;;
37163;Laerm;23057;48.554;14.454;2023-06-14T08:13:42;49.54;48.39;52.01;;
37163;Laerm;23057;48.554;14.454;2023-06-14T08:16:14;49.53;48.48;52.70;;
37163;Laerm;23057;48.554;14.454;2023-06-14T08:18:45;49.60;48.10;57.45;;
37163;Laerm;23057;48.554;14.454;2023-06-14T08:21:16;49.71;48.43;54.65;;
37163;Laerm;23057;48.554;14.454;2023-06-14T08:23:47;49.60;48.49;53.57;;
37163;Laerm;23057;48.554;14.454;2023-06-14T08:26:17;49.53;48.43;53.54;;
37163;Laerm;23057;48.554;14.454;2023-06-14T08:28:48;49.53;48.52;53.83;;
37163;Laerm;23057;48.554;14.454;2023-06-14T08:31:19;49.53;48.43;53.96;;
37163;Laerm;23057;48.554;14.454;2023-06-14T08:33:50;49.51;48.40;55.75;;
37163;Laerm;23057;48.554;14.454;2023-06-14T08:36:21;49.53;48.52;54.09;;
37163;Laerm;23057;48.554;14.454;2023-06-14T08:38:53;49.52;48.36;53.61;;
37163;Laerm;23057;48.554;14.454;2023-06-14T08:41:24;49.52;48.42;53.96;;
37163;Laerm;23057;48.554;14.454;2023-06-14T08:43:56;49.53;48.40;54.41;;
37163;Laerm;23057;48.554;14.454;2023-06-14T08:46:28;49.54;48.51;54.46;;
37163;Laerm;23057;48.554;14.454;2023-06-14T08:49:04;49.54;48.23;54.29;;
37163;Laerm;23057;48.554;14.454;2023-06-14T08:51:37;49.55;48.36;53.82;;
37163;Laerm;23057;48.554;14.454;2023-06-14T08:54:08;49.55;48.25;54.30;;
37163;Laerm;23057;48.554;14.454;2023-06-14T08:56:40;49.53;48.52;53.64;;
37163;Laerm;23057;48.554;14.454;2023-06-14T08:59:12;49.53;48.40;54.58;;
37163;Laerm;23057;48.554;14.454;2023-06-14T09:01:44;49.55;48.46;54.85;;
37163;Laerm;23057;48.554;14.454;2023-06-14T09:04:15;49.53;48.39;53.77;;
37163;Laerm;23057;48.554;14.454;2023-06-14T09:06:46;49.57;48.36;55.22;;
37163;Laerm;23057;48.554;14.454;2023-06-14T09:09:17;49.57;48.31;52.85;;
37163;Laerm;23057;48.554;14.454;2023-06-14T09:11:50;49.57;48.32;55.00;;
37163;Laerm;23057;48.554;14.454;2023-06-14T09:14:24;49.56;48.51;54.83;;
37163;Laerm;23057;48.554;14.454;2023-06-14T09:16:55;49.55;48.58;53.38;;
37163;Laerm;23057;48.554;14.454;2023-06-14T09:19:26;49.56;48.36;53.68;;
37163;Laerm;23057;48.554;14.454;2023-06-14T09:21:57;49.57;48.32;53.27;;
37163;Laerm;23057;48.554;14.454;2023-06-14T09:24:27;49.56;48.45;54.07;;
37163;Laerm;23057;48.554;14.454;2023-06-14T09:26:58;49.58;48.48;54.49;;
37163;Laerm;23057;48.554;14.454;2023-06-14T09:29:29;49.58;48.55;54.87;;
37163;Laerm;23057;48.554;14.454;2023-06-14T09:32:01;49.57;48.32;55.00;;
37163;Laerm;23057;48.554;14.454;2023-06-14T09:34:34;49.57;48.55;53.30;;
37163;Laerm;23057;48.554;14.454;2023-06-14T09:37:06;49.62;48.39;52.81;;
37163;Laerm;23057;48.554;14.454;2023-06-14T09:39:50;49.60;48.43;52.47;;
37163;Laerm;23057;48.554;14.454;2023-06-14T09:42:21;49.59;48.48;55.06;;
37163;Laerm;23057;48.554;14.454;2023-06-14T09:44:56;49.57;48.40;55.22;;
37163;Laerm;23057;48.554;14.454;2023-06-14T09:47:27;49.57;48.40;55.79;;
37163;Laerm;23057;48.554;14.454;2023-06-14T09:49:57;49.57;48.32;53.48;;
37163;Laerm;23057;48.554;14.454;2023-06-14T09:52:30;49.57;48.39;53.75;;
37163;Laerm;23057;48.554;14.454;2023-06-14T09:55:12;49.57;48.54;53.60;;
37163;Laerm;23057;48.554;14.454;2023-06-14T09:57:47;49.54;48.48;54.01;;
37163;Laerm;23057;48.554;14.454;2023-06-14T10:00:19;49.54;48.31;53.45;;
37163;Laerm;23057;48.554;14.454;2023-06-14T10:02:57;49.54;48.52;55.18;;
37163;Laerm;23057;48.554;14.454;2023-06-14T10:05:35;49.54;48.20;54.70;;
37163;Laerm;23057;48.554;14.454;2023-06-14T10:08:18;49.56;48.36;55.14;;
37163;Laerm;23057;48.554;14.454;2023-06-14T10:10:50;49.56;48.57;54.92;;
37163;Laerm;23057;48.554;14.454;2023-06-14T10:13:21;49.56;48.46;55.23;;
37163;Laerm;23057;48.554;14.454;2023-06-14T10:16:05;49.57;48.51;55.40;;
37163;Laerm;23057;48.554;14.454;2023-06-14T10:19:04;49.56;48.45;55.22;;
37163;Laerm;23057;48.554;14.454;2023-06-14T10:22:06;49.54;48.49;53.36;;
37163;Laerm;23057;48.554;14.454;2023-06-14T10:24:45;49.51;48.45;53.77;;
37163;Laerm;23057;48.554;14.454;2023-06-14T10:27:16;49.55;48.40;57.74;;
37163;Laerm;23057;48.554;14.454;2023-06-14T10:32:28;49.55;48.31;53.69;;
37163;Laerm;23057;48.554;14.454;2023-06-14T10:35:16;49.55;48.36;53.79;;
37163;Laerm;23057;48.554;14.454;2023-06-14T10:37:47;49.55;48.49;55.48;;
37163;Laerm;23057;48.554;14.454;2023-06-14T10:40:31;49.56;48.46;54.90;;
37163;Laerm;23057;48.554;14.454;2023-06-14T10:43:22;49.54;48.43;54.03;;
37163;Laerm;23057;48.554;14.454;2023-06-14T10:46:18;49.51;48.40;56.28;;
37163;Laerm;23057;48.554;14.454;2023-06-14T10:48:57;49.50;48.20;54.08;;
37163;Laerm;23057;48.554;14.454;2023-06-14T10:51:30;49.52;48.42;56.02;;
37163;Laerm;23057;48.554;14.454;2023-06-14T10:54:16;49.51;48.18;55.48;;
37163;Laerm;23057;48.554;14.454;2023-06-14T10:56:52;49.49;48.36;54.08;;
37163;Laerm;23057;48.554;14.454;2023-06-14T10:59:23;49.52;48.36;55.39;;
37163;Laerm;23057;48.554;14.454;2023-06-14T11:04:53;49.49;48.29;53.90;;
37163;Laerm;23057;48.554;14.454;2023-06-14T11:07:46;49.50;48.47;53.23;;
37163;Laerm;23057;48.554;14.454;2023-06-14T11:13:01;49.59;48.32;55.18;;
37163;Laerm;23057;48.554;14.454;2023-06-14T11:15:38;49.51;48.51;54.00;;
37163;Laerm;23057;48.554;14.454;2023-06-14T11:18:08;49.50;48.49;53.14;;
37163;Laerm;23057;48.554;14.454;2023-06-14T11:20:40;49.52;48.37;55.26;;
37163;Laerm;23057;48.554;14.454;2023-06-14T11:23:11;49.53;48.28;55.44;;
37163;Laerm;23057;48.554;14.454;2023-06-14T11:25:42;49.56;48.49;55.25;;
37163;Laerm;23057;48.554;14.454;2023-06-14T11:28:13;49.53;48.60;54.38;;
37163;Laerm;23057;48.554;14.454;2023-06-14T11:30:43;49.55;48.39;55.29;;
37163;Laerm;23057;48.554;14.454;2023-06-14T11:33:18;49.57;48.46;55.32;;
37163;Laerm;23057;48.554;14.454;2023-06-14T11:35:49;49.58;48.37;55.38;;
37163;Laerm;23057;48.554;14.454;2023-06-14T11:38:20;49.60;48.40;55.30;;
37163;Laerm;23057;48.554;14.454;2023-06-14T11:40:50;49.61;48.48;54.97;;
37163;Laerm;23057;48.554;14.454;2023-06-14T11:43:21;49.54;48.28;53.37;;
37163;Laerm;23057;48.554;14.454;2023-06-14T11:45:52;49.54;48.40;53.06;;
37163;Laerm;23057;48.554;14.454;2023-06-14T11:48:23;49.51;48.31;53.81;;
37163;Laerm;23057;48.554;14.454;2023-06-14T11:50:54;49.50;48.46;53.83;;
37163;Laerm;23057;48.554;14.454;2023-06-14T11:53:25;49.50;48.29;53.21;;
37163;Laerm;23057;48.554;14.454;2023-06-14T11:55:57;49.48;48.40;53.24;;
37163;Laerm;23057;48.554;14.454;2023-06-14T11:58:29;49.50;48.55;54.69;;
37163;Laerm;23057;48.554;14.454;2023-06-14T12:01:02;49.54;48.39;55.10;;
37163;Laerm;23057;48.554;14.454;2023-06-14T12:03:33;49.52;48.42;54.52;;
37163;Laerm;23057;48.554;14.454;2023-06-14T12:06:06;49.55;48.45;55.38;;
37163;Laerm;23057;48.554;14.454;2023-06-14T12:08:42;49.54;48.40;54.96;;
37163;Laerm;23057;48.554;14.454;2023-06-14T12:11:14;49.55;48.36;55.18;;
37163;Laerm;23057;48.554;14.454;2023-06-14T12:13:45;49.53;48.36;55.18;;
37163;Laerm;23057;48.554;14.454;2023-06-14T12:16:16;49.51;48.45;53.56;;
37163;Laerm;23057;48.554;14.454;2023-06-14T12:18:46;49.52;48.36;53.88;;
37163;Laerm;23057;48.554;14.454;2023-06-14T12:21:22;49.52;48.54;53.65;;
37163;Laerm;23057;48.554;14.454;2023-06-14T12:23:53;49.51;48.49;53.69;;
37163;Laerm;23057;48.554;14.454;2023-06-14T12:26:25;49.51;48.42;53.79;;
37163;Laerm;23057;48.554;14.454;2023-06-14T12:28:57;49.52;48.08;53.75;;
37163;Laerm;23057;48.554;14.454;2023-06-14T12:31:28;49.50;48.34;53.76;;
37163;Laerm;23057;48.554;14.454;2023-06-14T12:34:00;49.52;48.28;55.64;;
37163;Laerm;23057;48.554;14.454;2023-06-14T12:36:31;49.51;48.43;55.22;;
37163;Laerm;23057;48.554;14.454;2023-06-14T12:39:02;49.53;48.51;55.54;;
37163;Laerm;23057;48.554;14.454;2023-06-14T12:41:33;49.53;48.36;55.93;;
37163;Laerm;23057;48.554;14.454;2023-06-14T12:44:04;49.52;48.48;55.68;;
37163;Laerm;23057;48.554;14.454;2023-06-14T12:46:35;49.50;48.40;53.57;;
37163;Laerm;23057;48.554;14.454;2023-06-14T12:49:08;49.49;48.40;54.27;;
37163;Laerm;23057;48.554;14.454;2023-06-14T12:51:40;49.49;48.37;54.90;;
37163;Laerm;23057;48.554;14.454;2023-06-14T12:54:10;49.50;48.20;54.94;;
37163;Laerm;23057;48.554;14.454;2023-06-14T12:56:42;49.48;48.42;53.69;;
37163;Laerm;23057;48.554;14.454;2023-06-14T12:59:15;49.48;48.32;55.14;;
37163;Laerm;23057;48.554;14.454;2023-06-14T13:01:45;49.48;48.34;55.00;;
37163;Laerm;23057;48.554;14.454;2023-06-14T13:04:20;49.47;48.18;55.79;;
37163;Laerm;23057;48.554;14.454;2023-06-14T13:06:50;49.45;48.34;53.36;;
37163;Laerm;23057;48.554;14.454;2023-06-14T13:09:21;49.46;48.45;53.30;;
37163;Laerm;23057;48.554;14.454;2023-06-14T13:11:52;49.45;48.28;53.80;;
37163;Laerm;23057;48.554;14.454;2023-06-14T13:14:23;49.45;48.31;53.66;;
37163;Laerm;23057;48.554;14.454;2023-06-14T13:16:53;49.46;48.31;53.51;;
37163;Laerm;23057;48.554;14.454;2023-06-14T13:19:24;49.46;48.32;53.55;;
37163;Laerm;23057;48.554;14.454;2023-06-14T13:21:55;49.49;48.32;54.25;;
37163;Laerm;23057;48.554;14.454;2023-06-14T13:24:26;49.49;48.32;55.45;;
37163;Laerm;23057;48.554;14.454;2023-06-14T13:26:57;49.47;48.32;53.09;;
37163;Laerm;23057;48.554;14.454;2023-06-14T13:29:28;49.48;48.51;52.95;;
37163;Laerm;23057;48.554;14.454;2023-06-14T13:31:59;49.49;48.45;55.98;;
37163;Laerm;23057;48.554;14.454;2023-06-14T13:34:30;49.49;48.45;55.07;;
37163;Laerm;23057;48.554;14.454;2023-06-14T13:37:01;49.49;48.40;53.14;;
37163;Laerm;23057;48.554;14.454;2023-06-14T13:39:31;49.50;48.40;55.48;;
37163;Laerm;23057;48.554;14.454;2023-06-14T13:42:03;49.49;48.51;55.50;;
37163;Laerm;23057;48.554;14.454;2023-06-14T13:44:34;49.49;48.19;54.59;;
37163;Laerm;23057;48.554;14.454;2023-06-14T13:47:05;49.51;48.39;55.51;;
37163;Laerm;23057;48.554;14.454;2023-06-14T13:49:36;49.52;48.07;55.86;;
37163;Laerm;23057;48.554;14.454;2023-06-14T13:52:07;49.51;48.28;55.18;;
37163;Laerm;23057;48.554;14.454;2023-06-14T13:54:38;49.50;48.34;54.80;;
37163;Laerm;23057;48.554;14.454;2023-06-14T13:57:09;49.49;48.26;56.24;;
37163;Laerm;23057;48.554;14.454;2023-06-14T13:59:43;49.48;48.20;52.94;;
37163;Laerm;23057;48.554;14.454;2023-06-14T14:02:15;49.49;48.39;52.77;;
37163;Laerm;23057;48.554;14.454;2023-06-14T14:04:46;49.49;48.25;53.03;;
37163;Laerm;23057;48.554;14.454;2023-06-14T14:07:23;49.47;48.29;53.30;;
37163;Laerm;23057;48.554;14.454;2023-06-14T14:09:54;49.48;48.51;52.33;;